Terminal Aerodrome Forecast
Issued by NWS

Home | Current Version | Previous Version | Text Only | Print | Product List | Glossary On
Versions: 1 2 3 4 5 6 7 8 9 10 11 12 13 14
000
FTUS43 KJKL 242300
TAFSME
TAF
KSME 242333Z 2500/2524 26010G15KT P6SM OVC015
     FM250600 26008KT 5SM -RA BR OVC018
     FM251000 25006KT P6SM BKN025
     FM251800 23005KT P6SM SCT025=

USA.gov is the U.S. government's official web portal to all federal, state and local government web resources and services.